sensor_id;sensor_type;location;lat;lon;timestamp;temperature;humidity
31799;DHT22;18374;51.136;3.502;2022-07-09T02:29:46;16.20;99.90
31799;DHT22;18374;51.136;3.502;2022-07-09T02:32:14;16.50;99.90
31799;DHT22;18374;51.136;3.502;2022-07-09T02:34:42;16.50;99.90
31799;DHT22;18374;51.136;3.502;2022-07-09T02:37:09;16.50;99.90
31799;DHT22;18374;51.136;3.502;2022-07-09T02:39:37;16.60;99.90
31799;DHT22;18374;51.136;3.502;2022-07-09T02:42:05;16.60;99.90
31799;DHT22;18374;51.136;3.502;2022-07-09T02:44:32;16.60;99.90
31799;DHT22;18374;51.136;3.502;2022-07-09T02:47:00;16.60;99.90
31799;DHT22;18374;51.136;3.502;2022-07-09T02:49:28;16.60;99.90
31799;DHT22;18374;51.136;3.502;2022-07-09T02:51:56;16.60;99.90
31799;DHT22;18374;51.136;3.502;2022-07-09T02:54:26;16.50;99.90
31799;DHT22;18374;51.136;3.502;2022-07-09T02:56:54;16.50;99.90
31799;DHT22;18374;51.136;3.502;2022-07-09T02:59:22;16.40;99.90
31799;DHT22;18374;51.136;3.502;2022-07-09T03:01:49;16.40;99.90
31799;DHT22;18374;51.136;3.502;2022-07-09T03:04:17;16.40;99.90
31799;DHT22;18374;51.136;3.502;2022-07-09T03:06:45;16.30;99.90
31799;DHT22;18374;51.136;3.502;2022-07-09T03:09:13;16.30;99.90
31799;DHT22;18374;51.136;3.502;2022-07-09T03:11:40;16.30;99.90
31799;DHT22;18374;51.136;3.502;2022-07-09T03:14:08;16.30;99.90
31799;DHT22;18374;51.136;3.502;2022-07-09T03:16:36;16.20;99.90
31799;DHT22;18374;51.136;3.502;2022-07-09T03:19:03;16.20;99.90
31799;DHT22;18374;51.136;3.502;2022-07-09T03:21:31;16.20;99.90
31799;DHT22;18374;51.136;3.502;2022-07-09T03:23:59;16.10;99.90
31799;DHT22;18374;51.136;3.502;2022-07-09T03:26:26;16.10;99.90
31799;DHT22;18374;51.136;3.502;2022-07-09T03:28:54;16.00;99.90
31799;DHT22;18374;51.136;3.502;2022-07-09T03:31:21;16.00;99.90
31799;DHT22;18374;51.136;3.502;2022-07-09T03:33:49;16.00;99.90
31799;DHT22;18374;51.136;3.502;2022-07-09T03:36:22;16.00;99.90
31799;DHT22;18374;51.136;3.502;2022-07-09T03:38:49;16.00;99.90
31799;DHT22;18374;51.136;3.502;2022-07-09T03:41:17;16.00;99.90
31799;DHT22;18374;51.136;3.502;2022-07-09T03:43:45;16.00;99.90
31799;DHT22;18374;51.136;3.502;2022-07-09T03:46:13;16.00;99.90
31799;DHT22;18374;51.136;3.502;2022-07-09T03:48:40;16.00;99.90
31799;DHT22;18374;51.136;3.502;2022-07-09T03:51:08;16.00;99.90
31799;DHT22;18374;51.136;3.502;2022-07-09T03:53:36;16.00;99.90
31799;DHT22;18374;51.136;3.502;2022-07-09T03:56:04;16.00;99.90
31799;DHT22;18374;51.136;3.502;2022-07-09T03:58:32;16.10;99.90
31799;DHT22;18374;51.136;3.502;2022-07-09T04:01:00;16.10;99.90
31799;DHT22;18374;51.136;3.502;2022-07-09T04:03:28;16.10;99.90
31799;DHT22;18374;51.136;3.502;2022-07-09T04:05:55;16.10;99.90
31799;DHT22;18374;51.136;3.502;2022-07-09T04:08:23;16.10;99.90
31799;DHT22;18374;51.136;3.502;2022-07-09T04:10:51;16.20;99.90
31799;DHT22;18374;51.136;3.502;2022-07-09T04:13:18;16.20;99.90
31799;DHT22;18374;51.136;3.502;2022-07-09T04:15:46;16.20;99.90
31799;DHT22;18374;51.136;3.502;2022-07-09T04:18:14;16.20;99.90
31799;DHT22;18374;51.136;3.502;2022-07-09T04:20:44;16.20;99.90
31799;DHT22;18374;51.136;3.502;2022-07-09T04:23:12;16.20;99.90
31799;DHT22;18374;51.136;3.502;2022-07-09T04:25:40;16.20;99.90
31799;DHT22;18374;51.136;3.502;2022-07-09T04:28:08;16.20;99.90
31799;DHT22;18374;51.136;3.502;2022-07-09T04:30:35;16.20;99.90
31799;DHT22;18374;51.136;3.502;2022-07-09T04:33:03;16.10;99.90
31799;DHT22;18374;51.136;3.502;2022-07-09T04:35:31;16.10;99.90
31799;DHT22;18374;51.136;3.502;2022-07-09T04:37:59;16.00;99.90
31799;DHT22;18374;51.136;3.502;2022-07-09T04:40:26;16.10;99.90
31799;DHT22;18374;51.136;3.502;2022-07-09T04:42:54;16.10;99.90
31799;DHT22;18374;51.136;3.502;2022-07-09T04:45:22;16.00;99.90
31799;DHT22;18374;51.136;3.502;2022-07-09T04:47:50;16.00;99.90
31799;DHT22;18374;51.136;3.502;2022-07-09T04:50:17;16.00;99.90
31799;DHT22;18374;51.136;3.502;2022-07-09T04:52:45;16.00;99.90
31799;DHT22;18374;51.136;3.502;2022-07-09T04:55:13;16.00;99.90
31799;DHT22;18374;51.136;3.502;2022-07-09T04:57:43;16.10;99.90
31799;DHT22;18374;51.136;3.502;2022-07-09T05:00:11;16.10;99.90
31799;DHT22;18374;51.136;3.502;2022-07-09T05:02:39;16.20;99.90
31799;DHT22;18374;51.136;3.502;2022-07-09T05:05:07;16.20;99.90
31799;DHT22;18374;51.136;3.502;2022-07-09T05:07:36;16.20;99.90
31799;DHT22;18374;51.136;3.502;2022-07-09T05:10:04;16.20;99.90
31799;DHT22;18374;51.136;3.502;2022-07-09T05:12:32;16.20;99.90
31799;DHT22;18374;51.136;3.502;2022-07-09T05:14:59;16.20;99.90
31799;DHT22;18374;51.136;3.502;2022-07-09T05:17:27;16.20;99.90
31799;DHT22;18374;51.136;3.502;2022-07-09T05:19:55;16.20;99.90
31799;DHT22;18374;51.136;3.502;2022-07-09T05:22:22;16.20;99.90
31799;DHT22;18374;51.136;3.502;2022-07-09T05:24:50;16.20;99.90
31799;DHT22;18374;51.136;3.502;2022-07-09T05:27:18;16.30;99.90
31799;DHT22;18374;51.136;3.502;2022-07-09T05:29:45;16.30;99.90
31799;DHT22;18374;51.136;3.502;2022-07-09T05:32:13;16.30;99.90
31799;DHT22;18374;51.136;3.502;2022-07-09T05:34:41;16.30;99.90
31799;DHT22;18374;51.136;3.502;2022-07-09T05:37:09;16.30;99.90
31799;DHT22;18374;51.136;3.502;2022-07-09T05:39:40;16.40;99.90
31799;DHT22;18374;51.136;3.502;2022-07-09T05:42:08;16.40;99.90
31799;DHT22;18374;51.136;3.502;2022-07-09T05:44:36;16.60;99.90
31799;DHT22;18374;51.136;3.502;2022-07-09T05:47:03;16.60;99.90
31799;DHT22;18374;51.136;3.502;2022-07-09T05:49:31;16.80;99.90
31799;DHT22;18374;51.136;3.502;2022-07-09T05:51:59;16.90;99.90
31799;DHT22;18374;51.136;3.502;2022-07-09T05:54:27;17.00;99.90
31799;DHT22;18374;51.136;3.502;2022-07-09T05:56:54;17.10;99.90
31799;DHT22;18374;51.136;3.502;2022-07-09T05:59:22;17.10;99.90
31799;DHT22;18374;51.136;3.502;2022-07-09T06:01:49;17.20;99.90
31799;DHT22;18374;51.136;3.502;2022-07-09T06:04:17;17.40;99.90
31799;DHT22;18374;51.136;3.502;2022-07-09T06:06:45;17.40;99.90
31799;DHT22;18374;51.136;3.502;2022-07-09T06:09:13;17.50;99.90
31799;DHT22;18374;51.136;3.502;2022-07-09T06:11:40;17.50;99.90
31799;DHT22;18374;51.136;3.502;2022-07-09T06:14:08;17.50;99.90
31799;DHT22;18374;51.136;3.502;2022-07-09T06:16:35;17.60;99.90
31799;DHT22;18374;51.136;3.502;2022-07-09T06:19:03;17.70;99.90
31799;DHT22;18374;51.136;3.502;2022-07-09T06:21:31;17.80;99.90
31799;DHT22;18374;51.136;3.502;2022-07-09T06:23:58;17.80;99.90
31799;DHT22;18374;51.136;3.502;2022-07-09T06:26:26;18.00;99.90
31799;DHT22;18374;51.136;3.502;2022-07-09T06:28:54;18.10;99.90
31799;DHT22;18374;51.136;3.502;2022-07-09T06:31:21;18.30;99.90
31799;DHT22;18374;51.136;3.502;2022-07-09T06:33:50;18.30;99.90
31799;DHT22;18374;51.136;3.502;2022-07-09T06:36:23;18.40;99.90
31799;DHT22;18374;51.136;3.502;2022-07-09T06:38:50;18.50;99.90
31799;DHT22;18374;51.136;3.502;2022-07-09T06:41:36;18.70;99.90
31799;DHT22;18374;51.136;3.502;2022-07-09T06:44:04;18.70;99.90
31799;DHT22;18374;51.136;3.502;2022-07-09T06:46:31;18.80;99.90
31799;DHT22;18374;51.136;3.502;2022-07-09T06:48:59;18.90;99.90
31799;DHT22;18374;51.136;3.502;2022-07-09T06:51:27;18.90;99.90
31799;DHT22;18374;51.136;3.502;2022-07-09T06:53:54;18.90;99.90
31799;DHT22;18374;51.136;3.502;2022-07-09T06:56:22;19.00;99.90
31799;DHT22;18374;51.136;3.502;2022-07-09T06:58:50;19.10;99.90
31799;DHT22;18374;51.136;3.502;2022-07-09T07:01:18;19.10;99.90
31799;DHT22;18374;51.136;3.502;2022-07-09T07:03:45;19.20;99.90
31799;DHT22;18374;51.136;3.502;2022-07-09T07:06:13;19.10;99.90
31799;DHT22;18374;51.136;3.502;2022-07-09T07:08:41;19.20;99.90
31799;DHT22;18374;51.136;3.502;2022-07-09T07:11:09;19.10;99.90
31799;DHT22;18374;51.136;3.502;2022-07-09T07:13:36;19.10;99.90
31799;DHT22;18374;51.136;3.502;2022-07-09T07:16:04;19.10;99.90
31799;DHT22;18374;51.136;3.502;2022-07-09T07:18:32;19.20;99.90
31799;DHT22;18374;51.136;3.502;2022-07-09T07:21:00;19.10;99.90
31799;DHT22;18374;51.136;3.502;2022-07-09T07:23:28;19.10;99.90
31799;DHT22;18374;51.136;3.502;2022-07-09T07:25:59;19.00;99.90
31799;DHT22;18374;51.136;3.502;2022-07-09T07:28:27;19.20;99.90
31799;DHT22;18374;51.136;3.502;2022-07-09T07:30:55;19.20;99.90
31799;DHT22;18374;51.136;3.502;2022-07-09T07:33:24;19.30;99.90
31799;DHT22;18374;51.136;3.502;2022-07-09T07:35:51;19.20;99.90
31799;DHT22;18374;51.136;3.502;2022-07-09T07:38:19;19.20;99.90
31799;DHT22;18374;51.136;3.502;2022-07-09T07:40:46;19.10;99.90
31799;DHT22;18374;51.136;3.502;2022-07-09T07:43:14;19.10;99.90
31799;DHT22;18374;51.136;3.502;2022-07-09T07:45:42;19.10;99.90
31799;DHT22;18374;51.136;3.502;2022-07-09T07:48:10;19.10;99.90
31799;DHT22;18374;51.136;3.502;2022-07-09T07:50:37;19.10;99.90
31799;DHT22;18374;51.136;3.502;2022-07-09T07:53:06;19.20;99.90
31799;DHT22;18374;51.136;3.502;2022-07-09T07:55:34;19.20;99.90
31799;DHT22;18374;51.136;3.502;2022-07-09T07:58:02;19.30;99.90
31799;DHT22;18374;51.136;3.502;2022-07-09T08:00:29;19.40;99.90
31799;DHT22;18374;51.136;3.502;2022-07-09T08:02:57;19.40;99.90
31799;DHT22;18374;51.136;3.502;2022-07-09T08:05:25;19.40;99.90
31799;DHT22;18374;51.136;3.502;2022-07-09T08:07:53;19.50;99.90
31799;DHT22;18374;51.136;3.502;2022-07-09T08:10:20;19.70;99.90
31799;DHT22;18374;51.136;3.502;2022-07-09T08:12:49;19.90;99.90
31799;DHT22;18374;51.136;3.502;2022-07-09T08:15:17;19.90;99.90
31799;DHT22;18374;51.136;3.502;2022-07-09T08:17:45;20.10;99.90
31799;DHT22;18374;51.136;3.502;2022-07-09T08:20:12;20.20;99.90
31799;DHT22;18374;51.136;3.502;2022-07-09T08:22:40;20.00;99.90
31799;DHT22;18374;51.136;3.502;2022-07-09T08:25:08;19.80;99.90
31799;DHT22;18374;51.136;3.502;2022-07-09T08:27:41;19.90;99.90
31799;DHT22;18374;51.136;3.502;2022-07-09T08:30:09;20.10;99.90
31799;DHT22;18374;51.136;3.502;2022-07-09T08:32:37;20.50;99.90
31799;DHT22;18374;51.136;3.502;2022-07-09T08:35:06;20.50;99.90
31799;DHT22;18374;51.136;3.502;2022-07-09T08:37:34;20.20;99.90
31799;DHT22;18374;51.136;3.502;2022-07-09T08:40:06;20.00;99.90
31799;DHT22;18374;51.136;3.502;2022-07-09T08:42:35;20.00;99.90
31799;DHT22;18374;51.136;3.502;2022-07-09T08:45:07;19.80;99.90
31799;DHT22;18374;51.136;3.502;2022-07-09T08:47:56;19.80;99.90
31799;DHT22;18374;51.136;3.502;2022-07-09T08:50:24;19.90;99.90
31799;DHT22;18374;51.136;3.502;2022-07-09T08:52:54;20.10;99.90
31799;DHT22;18374;51.136;3.502;2022-07-09T08:55:23;20.30;99.90
31799;DHT22;18374;51.136;3.502;2022-07-09T08:57:51;20.50;99.90
31799;DHT22;18374;51.136;3.502;2022-07-09T09:00:18;20.70;99.90
31799;DHT22;18374;51.136;3.502;2022-07-09T09:02:46;20.70;99.90
31799;DHT22;18374;51.136;3.502;2022-07-09T09:05:15;20.50;99.90
31799;DHT22;18374;51.136;3.502;2022-07-09T09:07:43;20.40;99.90
31799;DHT22;18374;51.136;3.502;2022-07-09T09:10:24;20.20;99.90
31799;DHT22;18374;51.136;3.502;2022-07-09T09:13:00;20.10;99.90
31799;DHT22;18374;51.136;3.502;2022-07-09T09:15:29;20.30;99.90
31799;DHT22;18374;51.136;3.502;2022-07-09T09:17:57;20.50;99.90
31799;DHT22;18374;51.136;3.502;2022-07-09T09:20:25;20.60;99.90
31799;DHT22;18374;51.136;3.502;2022-07-09T09:22:53;20.60;99.90
31799;DHT22;18374;51.136;3.502;2022-07-09T09:25:27;20.90;99.90
31799;DHT22;18374;51.136;3.502;2022-07-09T09:27:57;21.10;99.90
31799;DHT22;18374;51.136;3.502;2022-07-09T09:30:28;21.00;99.90
31799;DHT22;18374;51.136;3.502;2022-07-09T09:33:04;20.70;99.90
31799;DHT22;18374;51.136;3.502;2022-07-09T09:35:35;20.80;99.90
31799;DHT22;18374;51.136;3.502;2022-07-09T09:38:10;20.90;99.90
31799;DHT22;18374;51.136;3.502;2022-07-09T09:40:44;21.20;99.90
31799;DHT22;18374;51.136;3.502;2022-07-09T09:43:14;21.10;99.90
31799;DHT22;18374;51.136;3.502;2022-07-09T09:45:47;21.00;99.90
31799;DHT22;18374;51.136;3.502;2022-07-09T09:48:17;20.70;99.90
31799;DHT22;18374;51.136;3.502;2022-07-09T09:50:47;20.50;99.90
31799;DHT22;18374;51.136;3.502;2022-07-09T09:53:16;20.50;99.90
31799;DHT22;18374;51.136;3.502;2022-07-09T09:55:45;20.60;99.90
31799;DHT22;18374;51.136;3.502;2022-07-09T09:58:13;20.50;99.90
31799;DHT22;18374;51.136;3.502;2022-07-09T10:00:42;20.70;99.90
31799;DHT22;18374;51.136;3.502;2022-07-09T10:03:11;20.80;99.90
31799;DHT22;18374;51.136;3.502;2022-07-09T10:05:40;20.50;99.90
31799;DHT22;18374;51.136;3.502;2022-07-09T10:08:08;20.50;99.90
31799;DHT22;18374;51.136;3.502;2022-07-09T10:10:36;20.60;99.90
31799;DHT22;18374;51.136;3.502;2022-07-09T10:13:04;20.70;99.90
31799;DHT22;18374;51.136;3.502;2022-07-09T10:15:31;20.80;99.90
31799;DHT22;18374;51.136;3.502;2022-07-09T10:18:09;20.70;99.90
31799;DHT22;18374;51.136;3.502;2022-07-09T10:20:43;20.50;99.90
31799;DHT22;18374;51.136;3.502;2022-07-09T10:23:24;20.60;99.90
31799;DHT22;18374;51.136;3.502;2022-07-09T10:25:52;20.60;99.90
31799;DHT22;18374;51.136;3.502;2022-07-09T10:28:23;20.60;99.90
31799;DHT22;18374;51.136;3.502;2022-07-09T10:30:52;20.50;99.90
31799;DHT22;18374;51.136;3.502;2022-07-09T10:33:23;20.50;99.90
31799;DHT22;18374;51.136;3.502;2022-07-09T10:35:56;20.50;99.90
31799;DHT22;18374;51.136;3.502;2022-07-09T10:38:35;20.40;99.90
31799;DHT22;18374;51.136;3.502;2022-07-09T10:41:05;20.40;99.90
31799;DHT22;18374;51.136;3.502;2022-07-09T10:43:40;20.50;99.90
31799;DHT22;18374;51.136;3.502;2022-07-09T10:46:16;20.60;99.90
31799;DHT22;18374;51.136;3.502;2022-07-09T10:48:44;20.50;99.90
31799;DHT22;18374;51.136;3.502;2022-07-09T10:51:20;20.30;99.90
31799;DHT22;18374;51.136;3.502;2022-07-09T10:53:50;20.10;99.90
31799;DHT22;18374;51.136;3.502;2022-07-09T10:56:19;20.10;99.90
31799;DHT22;18374;51.136;3.502;2022-07-09T10:58:48;20.20;99.90
31799;DHT22;18374;51.136;3.502;2022-07-09T11:01:21;20.10;99.90
31799;DHT22;18374;51.136;3.502;2022-07-09T11:03:51;20.00;99.90
31799;DHT22;18374;51.136;3.502;2022-07-09T11:06:19;20.10;99.90
31799;DHT22;18374;51.136;3.502;2022-07-09T11:08:47;20.10;99.90
31799;DHT22;18374;51.136;3.502;2022-07-09T11:11:24;20.10;99.90
31799;DHT22;18374;51.136;3.502;2022-07-09T11:13:52;20.10;99.90
31799;DHT22;18374;51.136;3.502;2022-07-09T11:16:23;20.00;99.90
31799;DHT22;18374;51.136;3.502;2022-07-09T11:18:52;20.10;99.90
31799;DHT22;18374;51.136;3.502;2022-07-09T11:21:23;20.10;99.90
31799;DHT22;18374;51.136;3.502;2022-07-09T11:23:51;20.00;99.90
31799;DHT22;18374;51.136;3.502;2022-07-09T11:26:20;20.10;99.90
31799;DHT22;18374;51.136;3.502;2022-07-09T11:28:48;20.50;99.90
31799;DHT22;18374;51.136;3.502;2022-07-09T11:31:16;20.50;99.90
31799;DHT22;18374;51.136;3.502;2022-07-09T11:33:45;20.60;99.90
31799;DHT22;18374;51.136;3.502;2022-07-09T11:36:38;20.60;99.90
31799;DHT22;18374;51.136;3.502;2022-07-09T11:39:06;20.40;99.90
31799;DHT22;18374;51.136;3.502;2022-07-09T11:41:44;20.30;99.90
31799;DHT22;18374;51.136;3.502;2022-07-09T11:44:20;20.30;99.90
31799;DHT22;18374;51.136;3.502;2022-07-09T11:47:10;20.30;99.90
31799;DHT22;18374;51.136;3.502;2022-07-09T11:49:41;20.20;99.90
31799;DHT22;18374;51.136;3.502;2022-07-09T11:52:43;20.20;99.90
31799;DHT22;18374;51.136;3.502;2022-07-09T11:55:15;20.20;99.90
31799;DHT22;18374;51.136;3.502;2022-07-09T11:58:12;20.00;99.90
31799;DHT22;18374;51.136;3.502;2022-07-09T12:00:40;19.90;99.90
31799;DHT22;18374;51.136;3.502;2022-07-09T12:03:08;19.90;99.90
31799;DHT22;18374;51.136;3.502;2022-07-09T12:05:36;19.90;99.90
31799;DHT22;18374;51.136;3.502;2022-07-09T12:08:06;19.90;99.90
31799;DHT22;18374;51.136;3.502;2022-07-09T12:10:39;19.90;99.90
31799;DHT22;18374;51.136;3.502;2022-07-09T12:13:07;19.80;99.90
31799;DHT22;18374;51.136;3.502;2022-07-09T12:15:36;19.70;99.90
31799;DHT22;18374;51.136;3.502;2022-07-09T12:18:04;19.90;99.90
31799;DHT22;18374;51.136;3.502;2022-07-09T12:20:32;20.00;99.90
31799;DHT22;18374;51.136;3.502;2022-07-09T12:23:00;19.90;99.90
31799;DHT22;18374;51.136;3.502;2022-07-09T12:25:27;19.80;99.90
31799;DHT22;18374;51.136;3.502;2022-07-09T12:27:55;19.80;99.90
31799;DHT22;18374;51.136;3.502;2022-07-09T12:30:23;20.00;99.90
31799;DHT22;18374;51.136;3.502;2022-07-09T12:32:51;20.00;99.90
31799;DHT22;18374;51.136;3.502;2022-07-09T12:35:18;20.00;99.90
31799;DHT22;18374;51.136;3.502;2022-07-09T12:37:46;19.90;99.90
31799;DHT22;18374;51.136;3.502;2022-07-09T12:40:14;20.00;99.90
31799;DHT22;18374;51.136;3.502;2022-07-09T12:42:42;19.80;99.90
31799;DHT22;18374;51.136;3.502;2022-07-09T12:45:10;19.40;99.90
31799;DHT22;18374;51.136;3.502;2022-07-09T12:47:39;19.20;99.90
31799;DHT22;18374;51.136;3.502;2022-07-09T12:50:07;19.40;99.90
31799;DHT22;18374;51.136;3.502;2022-07-09T12:52:36;19.80;99.90
31799;DHT22;18374;51.136;3.502;2022-07-09T12:55:05;19.80;99.90
31799;DHT22;18374;51.136;3.502;2022-07-09T12:57:33;19.70;99.90
31799;DHT22;18374;51.136;3.502;2022-07-09T13:00:00;19.80;99.90
31799;DHT22;18374;51.136;3.502;2022-07-09T13:02:28;20.00;99.90
31799;DHT22;18374;51.136;3.502;2022-07-09T13:04:56;20.30;99.90
31799;DHT22;18374;51.136;3.502;2022-07-09T13:07:24;20.20;99.90
31799;DHT22;18374;51.136;3.502;2022-07-09T13:09:51;20.10;99.90
31799;DHT22;18374;51.136;3.502;2022-07-09T13:12:19;20.10;99.90
31799;DHT22;18374;51.136;3.502;2022-07-09T13:14:47;20.20;99.90
31799;DHT22;18374;51.136;3.502;2022-07-09T13:17:15;20.40;99.90
31799;DHT22;18374;51.136;3.502;2022-07-09T13:19:57;20.40;99.90
31799;DHT22;18374;51.136;3.502;2022-07-09T13:22:25;20.30;99.90
31799;DHT22;18374;51.136;3.502;2022-07-09T13:24:53;20.50;99.90
31799;DHT22;18374;51.136;3.502;2022-07-09T13:27:21;20.50;99.90
31799;DHT22;18374;51.136;3.502;2022-07-09T13:29:48;20.30;99.90
31799;DHT22;18374;51.136;3.502;2022-07-09T13:32:16;20.30;99.90
31799;DHT22;18374;51.136;3.502;2022-07-09T13:34:52;20.30;99.90
31799;DHT22;18374;51.136;3.502;2022-07-09T13:37:20;20.20;99.90
31799;DHT22;18374;51.136;3.502;2022-07-09T13:39:48;20.10;99.90
31799;DHT22;18374;51.136;3.502;2022-07-09T13:42:16;19.90;99.90
31799;DHT22;18374;51.136;3.502;2022-07-09T13:44:44;20.10;99.90
31799;DHT22;18374;51.136;3.502;2022-07-09T13:47:12;20.10;99.90
31799;DHT22;18374;51.136;3.502;2022-07-09T13:49:40;20.20;99.90
31799;DHT22;18374;51.136;3.502;2022-07-09T13:52:07;19.90;99.90
31799;DHT22;18374;51.136;3.502;2022-07-09T13:54:35;19.70;99.90
31799;DHT22;18374;51.136;3.502;2022-07-09T13:57:03;19.50;99.90
31799;DHT22;18374;51.136;3.502;2022-07-09T13:59:31;19.50;99.90
31799;DHT22;18374;51.136;3.502;2022-07-09T14:01:59;19.80;99.90
31799;DHT22;18374;51.136;3.502;2022-07-09T14:04:27;20.00;99.90
31799;DHT22;18374;51.136;3.502;2022-07-09T14:06:55;20.00;99.90
31799;DHT22;18374;51.136;3.502;2022-07-09T14:09:23;19.90;99.90
31799;DHT22;18374;51.136;3.502;2022-07-09T14:11:53;19.80;99.90
31799;DHT22;18374;51.136;3.502;2022-07-09T14:14:21;19.60;99.90
31799;DHT22;18374;51.136;3.502;2022-07-09T14:16:49;19.50;99.90
31799;DHT22;18374;51.136;3.502;2022-07-09T14:19:17;19.60;99.90
31799;DHT22;18374;51.136;3.502;2022-07-09T14:21:45;19.80;99.90
31799;DHT22;18374;51.136;3.502;2022-07-09T14:24:13;19.80;99.90
31799;DHT22;18374;51.136;3.502;2022-07-09T14:26:41;19.70;99.90
31799;DHT22;18374;51.136;3.502;2022-07-09T14:29:11;19.60;99.90
31799;DHT22;18374;51.136;3.502;2022-07-09T14:31:44;19.50;99.90
31799;DHT22;18374;51.136;3.502;2022-07-09T14:34:12;19.50;99.90
31799;DHT22;18374;51.136;3.502;2022-07-09T14:36:39;19.70;99.90
31799;DHT22;18374;51.136;3.502;2022-07-09T14:39:07;20.00;99.90
31799;DHT22;18374;51.136;3.502;2022-07-09T14:41:35;20.20;99.90
31799;DHT22;18374;51.136;3.502;2022-07-09T14:44:04;20.40;99.90
31799;DHT22;18374;51.136;3.502;2022-07-09T14:46:31;20.40;99.90
31799;DHT22;18374;51.136;3.502;2022-07-09T14:48:59;20.30;99.90
31799;DHT22;18374;51.136;3.502;2022-07-09T14:51:27;20.20;99.90
31799;DHT22;18374;51.136;3.502;2022-07-09T14:53:55;20.30;99.90
31799;DHT22;18374;51.136;3.502;2022-07-09T14:56:22;20.30;99.90
31799;DHT22;18374;51.136;3.502;2022-07-09T14:58:50;20.00;99.90
31799;DHT22;18374;51.136;3.502;2022-07-09T15:01:18;19.90;99.90
31799;DHT22;18374;51.136;3.502;2022-07-09T15:03:46;19.80;99.90
31799;DHT22;18374;51.136;3.502;2022-07-09T15:06:13;19.80;99.90
31799;DHT22;18374;51.136;3.502;2022-07-09T15:08:41;19.60;99.90
31799;DHT22;18374;51.136;3.502;2022-07-09T15:11:09;19.60;99.90
31799;DHT22;18374;51.136;3.502;2022-07-09T15:13:37;19.70;99.90
31799;DHT22;18374;51.136;3.502;2022-07-09T15:16:06;19.70;99.90
31799;DHT22;18374;51.136;3.502;2022-07-09T15:18:34;19.50;99.90
31799;DHT22;18374;51.136;3.502;2022-07-09T15:21:03;19.60;99.90
31799;DHT22;18374;51.136;3.502;2022-07-09T15:23:32;19.50;99.90
31799;DHT22;18374;51.136;3.502;2022-07-09T15:25:59;19.40;99.90
31799;DHT22;18374;51.136;3.502;2022-07-09T15:28:27;19.40;99.90
31799;DHT22;18374;51.136;3.502;2022-07-09T15:30:55;19.50;99.90
31799;DHT22;18374;51.136;3.502;2022-07-09T15:33:22;19.60;99.90
31799;DHT22;18374;51.136;3.502;2022-07-09T15:35:51;19.80;99.90
31799;DHT22;18374;51.136;3.502;2022-07-09T15:38:18;20.00;99.90
31799;DHT22;18374;51.136;3.502;2022-07-09T15:40:46;20.20;99.90
31799;DHT22;18374;51.136;3.502;2022-07-09T15:43:13;20.00;99.90
31799;DHT22;18374;51.136;3.502;2022-07-09T15:45:43;19.60;99.90
31799;DHT22;18374;51.136;3.502;2022-07-09T15:48:13;19.40;99.90
31799;DHT22;18374;51.136;3.502;2022-07-09T15:50:41;19.50;99.90
31799;DHT22;18374;51.136;3.502;2022-07-09T15:53:09;19.70;99.90
31799;DHT22;18374;51.136;3.502;2022-07-09T15:55:37;19.90;99.90
31799;DHT22;18374;51.136;3.502;2022-07-09T15:58:04;20.00;99.90
31799;DHT22;18374;51.136;3.502;2022-07-09T16:00:32;20.00;99.90
31799;DHT22;18374;51.136;3.502;2022-07-09T16:03:00;20.10;99.90
31799;DHT22;18374;51.136;3.502;2022-07-09T16:05:29;20.10;99.90
31799;DHT22;18374;51.136;3.502;2022-07-09T16:07:57;20.20;99.90
31799;DHT22;18374;51.136;3.502;2022-07-09T16:10:26;19.90;99.90
31799;DHT22;18374;51.136;3.502;2022-07-09T16:12:55;19.60;99.90
31799;DHT22;18374;51.136;3.502;2022-07-09T16:15:24;19.50;99.90
31799;DHT22;18374;51.136;3.502;2022-07-09T16:17:54;19.50;99.90
31799;DHT22;18374;51.136;3.502;2022-07-09T16:20:25;19.40;99.90
31799;DHT22;18374;51.136;3.502;2022-07-09T16:22:53;19.40;99.90
31799;DHT22;18374;51.136;3.502;2022-07-09T16:25:21;19.30;99.90
31799;DHT22;18374;51.136;3.502;2022-07-09T16:27:49;19.50;99.90
31799;DHT22;18374;51.136;3.502;2022-07-09T16:30:17;19.60;99.90
31799;DHT22;18374;51.136;3.502;2022-07-09T16:32:45;19.50;99.90
31799;DHT22;18374;51.136;3.502;2022-07-09T16:35:12;19.50;99.90
31799;DHT22;18374;51.136;3.502;2022-07-09T16:37:40;19.50;99.90
31799;DHT22;18374;51.136;3.502;2022-07-09T16:40:09;19.40;99.90
31799;DHT22;18374;51.136;3.502;2022-07-09T16:42:37;19.30;99.90
31799;DHT22;18374;51.136;3.502;2022-07-09T16:45:05;19.40;99.90
31799;DHT22;18374;51.136;3.502;2022-07-09T16:47:33;19.50;99.90
31799;DHT22;18374;51.136;3.502;2022-07-09T16:50:01;19.60;99.90
31799;DHT22;18374;51.136;3.502;2022-07-09T16:52:32;19.70;99.90
31799;DHT22;18374;51.136;3.502;2022-07-09T16:55:00;19.80;99.90
31799;DHT22;18374;51.136;3.502;2022-07-09T16:57:30;19.90;99.90
31799;DHT22;18374;51.136;3.502;2022-07-09T16:59:58;19.80;99.90
31799;DHT22;18374;51.136;3.502;2022-07-09T17:02:38;19.50;99.90
31799;DHT22;18374;51.136;3.502;2022-07-09T17:05:08;19.30;99.90
31799;DHT22;18374;51.136;3.502;2022-07-09T17:07:37;19.20;99.90
31799;DHT22;18374;51.136;3.502;2022-07-09T17:10:06;19.20;99.90
31799;DHT22;18374;51.136;3.502;2022-07-09T17:12:35;19.10;99.90
31799;DHT22;18374;51.136;3.502;2022-07-09T17:15:07;19.20;99.90
31799;DHT22;18374;51.136;3.502;2022-07-09T17:17:36;19.20;99.90
31799;DHT22;18374;51.136;3.502;2022-07-09T17:20:05;19.30;99.90
31799;DHT22;18374;51.136;3.502;2022-07-09T17:22:36;19.30;99.90
31799;DHT22;18374;51.136;3.502;2022-07-09T17:25:05;19.20;99.90
31799;DHT22;18374;51.136;3.502;2022-07-09T17:27:33;19.20;99.90
31799;DHT22;18374;51.136;3.502;2022-07-09T17:30:00;19.10;99.90
31799;DHT22;18374;51.136;3.502;2022-07-09T17:32:28;19.10;99.90
31799;DHT22;18374;51.136;3.502;2022-07-09T17:34:56;19.00;99.90
31799;DHT22;18374;51.136;3.502;2022-07-09T17:37:24;19.00;99.90
31799;DHT22;18374;51.136;3.502;2022-07-09T17:39:53;18.90;99.90
31799;DHT22;18374;51.136;3.502;2022-07-09T17:42:20;18.90;99.90
31799;DHT22;18374;51.136;3.502;2022-07-09T17:44:48;18.70;99.90
31799;DHT22;18374;51.136;3.502;2022-07-09T17:47:16;18.70;99.90
31799;DHT22;18374;51.136;3.502;2022-07-09T17:49:47;18.70;99.90
31799;DHT22;18374;51.136;3.502;2022-07-09T17:52:15;18.70;99.90
31799;DHT22;18374;51.136;3.502;2022-07-09T17:54:44;18.90;99.90
31799;DHT22;18374;51.136;3.502;2022-07-09T17:57:14;18.80;99.90
31799;DHT22;18374;51.136;3.502;2022-07-09T17:59:43;18.70;99.90
31799;DHT22;18374;51.136;3.502;2022-07-09T18:02:12;18.60;99.90
31799;DHT22;18374;51.136;3.502;2022-07-09T18:04:40;18.50;99.90
31799;DHT22;18374;51.136;3.502;2022-07-09T18:07:08;18.40;99.90
31799;DHT22;18374;51.136;3.502;2022-07-09T18:09:35;18.30;99.90